Kinrikimaru No.5 — JL6558 — position and weather

sailwx.info

Track history (hours):
 
Tides and Currents Weather Stations Pressure Air Temp Water Temp Dewpoint Dewpoint Depression Visibility Wind Speed Wind Dir Waves Ship Positions

Kinrikimaru No.5

Last reported at 2017-Dec-14 14:54 UTC. Time now 2017-Dec-16 01:23 UTC.
Position N 34°55' E 140°04'.

Length 75 m; draft 3.8 m.

Type: Cargo ship. MMSI: 431501278.

Date/timePositionNaut miles runAvg speedWind from/ knotsBaromVisibWave heightAir tempDewpointWater temp
2017-Dec-14 14:54N 34°55' E 140°04'1811.7
2017-Dec-14 13:22N 34°50' E 139°43'610.5
2017-Dec-14 12:49N 34°50' E 139°36'310.5
2017-Dec-14 12:30N 34°50' E 139°32'1411.1
2017-Dec-14 11:13N 34°47' E 139°15'313.2
2017-Dec-14 11:00N 34°45' E 139°12'713.0
2017-Dec-14 10:28N 34°41' E 139°05'611.9
2017-Dec-14 09:59N 34°37' E 138°60'711.8
2017-Dec-14 09:25N 34°35' E 138°52'510.9
2017-Dec-14 09:00N 34°36' E 138°47'5 9.8
2017-Dec-14 08:27N 34°40' E 138°43'510.5
2017-Dec-14 08:00N 34°45' E 138°41'611.0
2017-Dec-14 07:30N 34°50' E 138°38'611.2
2017-Dec-14 07:00N 34°55' E 138°36'611.2
2017-Dec-14 06:30N 35°00' E 138°33'3 6.3
2017-Dec-14 06:00N 35°01' E 138°30'0 0.0
2017-Dec-14 05:30N 35°01' E 138°30'0 0.0
2017-Dec-14 05:00N 35°01' E 138°30'0 0.0
2017-Dec-14 04:30N 35°01' E 138°30'0 0.0
2017-Dec-14 03:58N 35°01' E 138°30'0 0.0
2017-Dec-14 03:28N 35°01' E 138°30'0 0.0
2017-Dec-14 02:58N 35°01' E 138°30'0 0.0
2017-Dec-14 02:28N 35°01' E 138°30'0 0.0
2017-Dec-14 01:58N 35°01' E 138°30'0 0.0
2017-Dec-14 01:28N 35°01' E 138°30'0 0.0
2017-Dec-14 00:58N 35°01' E 138°30'0 0.0
2017-Dec-14 00:28N 35°01' E 138°30'0 0.0
2017-Dec-13 23:58N 35°01' E 138°30'0 0.0
2017-Dec-13 23:28N 35°01' E 138°30'0 0.0
2017-Dec-13 22:58N 35°01' E 138°30'0 0.0
2017-Dec-13 22:28N 35°01' E 138°30'0 0.5
2017-Dec-13 22:01N 35°01' E 138°30'4 8.5
2017-Dec-13 21:30N 35°02' E 138°35'2 3.7
2017-Dec-13 21:00N 35°00' E 138°36'611.1
2017-Dec-13 20:30N 34°55' E 138°32'611.3
2017-Dec-13 20:01N 34°50' E 138°29'510.2
2017-Dec-13 19:30N 34°45' E 138°27'4 8.5
2017-Dec-13 19:00N 34°42' E 138°30'5 9.4
2017-Dec-13 18:27N 34°40' E 138°36'4 8.7
2017-Dec-13 18:00N 34°38' E 138°40'4 8.3
2017-Dec-13 17:29N 34°36' E 138°45'4 7.9
2017-Dec-13 17:00N 34°35' E 138°49'4 8.6
2017-Dec-13 16:30N 34°36' E 138°55'611.5
2017-Dec-13 15:57N 34°39' E 139°01'1611.6
2017-Dec-13 14:37N 34°52' E 139°11'111.6
2017-Dec-13 14:30N 34°53' E 139°12'711.3
2017-Dec-13 13:55N 34°59' E 139°17'511.6
2017-Dec-13 13:29N 35°03' E 139°19'611.8
2017-Dec-13 13:00N 35°05' E 139°26'611.7
2017-Dec-13 12:29N 35°05' E 139°33'611.9
2017-Dec-13 12:00N 35°07' E 139°40'611.4
2017-Dec-13 11:31N 35°11' E 139°45'611.1
2017-Dec-13 11:01N 35°16' E 139°45'611.6
2017-Dec-13 10:30N 35°21' E 139°42'511.0
2017-Dec-13 10:00N 35°26' E 139°45'611.9
2017-Dec-13 09:30N 35°30' E 139°51'510.7
2017-Dec-13 09:00N 35°30' E 139°58'1 1.1
2017-Dec-13 08:21N 35°29' E 139°59'0 0.0
2017-Dec-13 08:00N 35°29' E 139°59'0 0.0
2017-Dec-13 06:54N 35°29' E 139°59'2 5.0
2017-Dec-13 06:30N 35°27' E 139°60'0 0.0
2017-Dec-13 06:00N 35°27' E 139°60'0 0.0
2017-Dec-13 05:30N 35°27' E 139°60'0 0.0
2017-Dec-13 05:00N 35°27' E 139°60'0 0.0
2017-Dec-13 04:28N 35°27' E 139°60'0 0.0
2017-Dec-13 03:31N 35°27' E 139°60'0 0.0
2017-Dec-13 03:10N 35°27' E 139°60'0 0.0
2017-Dec-13 02:55N 35°27' E 139°60'0 0.0
2017-Dec-13 02:25N 35°27' E 139°60'0 0.0
2017-Dec-13 01:58N 35°27' E 139°60'0 0.0
2017-Dec-13 01:22N 35°27' E 139°60'0 0.0
2017-Dec-13 00:58N 35°27' E 139°60'0 0.0
2017-Dec-13 00:22N 35°27' E 139°60'0 0.0
2017-Dec-12 23:58N 35°27' E 139°60'0 0.0
2017-Dec-12 23:13N 35°27' E 139°60'0 0.0
2017-Dec-12 22:49N 35°27' E 139°60'1 1.7
2017-Dec-12 22:30N 35°28' E 139°59'2 2.9
2017-Dec-12 21:49N 35°30' E 139°58'2 7.3
2017-Dec-12 21:30N 35°30' E 139°55'5 9.8
2017-Dec-12 21:00N 35°27' E 139°51'510.2
2017-Dec-12 20:31N 35°23' E 139°46'510.0
2017-Dec-12 20:00N 35°19' E 139°44'510.2
2017-Dec-12 19:30N 35°14' E 139°47'510.8
2017-Dec-12 19:00N 35°09' E 139°47'611.1
2017-Dec-12 18:30N 35°03' E 139°45'11 9.4
2017-Dec-12 17:22N 34°53' E 139°48'12 9.0
2017-Dec-12 16:02N 34°56' E 140°02'411.1
2017-Dec-12 15:40N 34°58' E 140°06'  
2017-Dec-07 19:02N 34°57' E 140°07'011.0
2017-Dec-07 19:00N 34°57' E 140°07'1712.6
2017-Dec-07 17:38N 34°50' E 139°48'212.2
2017-Dec-07 17:28N 34°50' E 139°45'711.3
2017-Dec-07 16:51N 34°49' E 139°37'511.3
2017-Dec-07 16:26N 34°50' E 139°31'712.0
2017-Dec-07 15:52N 34°50' E 139°23'813.2
2017-Dec-07 15:16N 34°46' E 139°15'313.1
2017-Dec-07 15:00N 34°44' E 139°11'713.1
2017-Dec-07 14:30N 34°40' E 139°05'712.1
2017-Dec-07 13:56N 34°36' E 138°58'612.8
2017-Dec-07 13:27N 34°35' E 138°50'512.0
2017-Dec-07 13:00N 34°36' E 138°44'510.6
2017-Dec-07 12:29N 34°41' E 138°41'510.2
2017-Dec-07 11:59N 34°46' E 138°40'510.5
2017-Dec-07 11:30N 34°51' E 138°38'510.8
2017-Dec-07 11:00N 34°56' E 138°36'510.8
2017-Dec-07 10:30N 35°01' E 138°33'3 5.3
2017-Dec-07 10:00N 35°01' E 138°30'0 0.1
2017-Dec-07 09:30N 35°01' E 138°30'0 0.1
2017-Dec-07 08:58N 35°01' E 138°30'0 0.0
2017-Dec-07 08:28N 35°01' E 138°30'0 0.0
2017-Dec-07 07:58N 35°01' E 138°30'0 0.1
2017-Dec-07 07:28N 35°01' E 138°30'0 0.0
2017-Dec-07 06:58N 35°01' E 138°30'0 0.0
2017-Dec-07 06:28N 35°01' E 138°30'0 0.1
2017-Dec-07 05:58N 35°01' E 138°30'0 0.1
2017-Dec-07 05:28N 35°01' E 138°30'0 0.0
2017-Dec-07 04:58N 35°01' E 138°30'0 0.1
2017-Dec-07 04:28N 35°01' E 138°30'0 0.0
2017-Dec-07 03:58N 35°01' E 138°30'0 0.0
2017-Dec-07 03:28N 35°01' E 138°30'0 0.0
2017-Dec-07 02:58N 35°01' E 138°30'0 0.0
2017-Dec-07 02:25N 35°01' E 138°30'0 0.0
2017-Dec-07 01:58N 35°01' E 138°30'0 0.0
2017-Dec-07 01:25N 35°01' E 138°30'0 0.0
2017-Dec-07 01:01N 35°01' E 138°30'0 0.0
2017-Dec-07 00:30N 35°01' E 138°30'0 0.0
2017-Dec-07 00:01N 35°01' E 138°30'0 0.0
2017-Dec-06 23:31N 35°01' E 138°30'0 0.0
2017-Dec-06 23:00N 35°01' E 138°30'0 0.0
2017-Dec-06 22:30N 35°01' E 138°30'0 0.0
2017-Dec-06 22:00N 35°01' E 138°30'1 1.6
2017-Dec-06 21:28N 35°01' E 138°30'0 0.0
2017-Dec-06 20:58N 35°01' E 138°30'  
Track history (hours):
 
Tides and Currents Weather Stations Pressure Air Temp Water Temp Dewpoint Dewpoint Depression Visibility Wind Speed Wind Dir Waves Ship Positions

Kinrikimaru No.5

Last reported at 2017-Dec-14 14:54 UTC. Time now 2017-Dec-16 01:23 UTC.
Position N 34°55' E 140°04'.

Length 75 m; draft 3.8 m.

Type: Cargo ship. MMSI: 431501278.

Date/timePositionNaut miles runAvg speedWind from/ knotsBaromVisibWave heightAir tempDewpointWater temp
2017-Dec-14 14:54N 34°55' E 140°04'1811.7
2017-Dec-14 13:22N 34°50' E 139°43'610.5
2017-Dec-14 12:49N 34°50' E 139°36'310.5
2017-Dec-14 12:30N 34°50' E 139°32'1411.1
2017-Dec-14 11:13N 34°47' E 139°15'313.2
2017-Dec-14 11:00N 34°45' E 139°12'713.0
2017-Dec-14 10:28N 34°41' E 139°05'611.9
2017-Dec-14 09:59N 34°37' E 138°60'711.8
2017-Dec-14 09:25N 34°35' E 138°52'510.9
2017-Dec-14 09:00N 34°36' E 138°47'5 9.8
2017-Dec-14 08:27N 34°40' E 138°43'510.5
2017-Dec-14 08:00N 34°45' E 138°41'611.0
2017-Dec-14 07:30N 34°50' E 138°38'611.2
2017-Dec-14 07:00N 34°55' E 138°36'611.2
2017-Dec-14 06:30N 35°00' E 138°33'3 6.3
2017-Dec-14 06:00N 35°01' E 138°30'0 0.0
2017-Dec-14 05:30N 35°01' E 138°30'0 0.0
2017-Dec-14 05:00N 35°01' E 138°30'0 0.0
2017-Dec-14 04:30N 35°01' E 138°30'0 0.0
2017-Dec-14 03:58N 35°01' E 138°30'0 0.0
2017-Dec-14 03:28N 35°01' E 138°30'0 0.0
2017-Dec-14 02:58N 35°01' E 138°30'0 0.0
2017-Dec-14 02:28N 35°01' E 138°30'0 0.0
2017-Dec-14 01:58N 35°01' E 138°30'0 0.0
2017-Dec-14 01:28N 35°01' E 138°30'0 0.0
2017-Dec-14 00:58N 35°01' E 138°30'0 0.0
2017-Dec-14 00:28N 35°01' E 138°30'0 0.0
2017-Dec-13 23:58N 35°01' E 138°30'0 0.0
2017-Dec-13 23:28N 35°01' E 138°30'0 0.0
2017-Dec-13 22:58N 35°01' E 138°30'0 0.0
2017-Dec-13 22:28N 35°01' E 138°30'0 0.5
2017-Dec-13 22:01N 35°01' E 138°30'4 8.5
2017-Dec-13 21:30N 35°02' E 138°35'2 3.7
2017-Dec-13 21:00N 35°00' E 138°36'611.1
2017-Dec-13 20:30N 34°55' E 138°32'611.3
2017-Dec-13 20:01N 34°50' E 138°29'510.2
2017-Dec-13 19:30N 34°45' E 138°27'4 8.5
2017-Dec-13 19:00N 34°42' E 138°30'5 9.4
2017-Dec-13 18:27N 34°40' E 138°36'4 8.7
2017-Dec-13 18:00N 34°38' E 138°40'4 8.3
2017-Dec-13 17:29N 34°36' E 138°45'4 7.9
2017-Dec-13 17:00N 34°35' E 138°49'4 8.6
2017-Dec-13 16:30N 34°36' E 138°55'611.5
2017-Dec-13 15:57N 34°39' E 139°01'1611.6
2017-Dec-13 14:37N 34°52' E 139°11'111.6
2017-Dec-13 14:30N 34°53' E 139°12'711.3
2017-Dec-13 13:55N 34°59' E 139°17'511.6
2017-Dec-13 13:29N 35°03' E 139°19'611.8
2017-Dec-13 13:00N 35°05' E 139°26'611.7
2017-Dec-13 12:29N 35°05' E 139°33'611.9
2017-Dec-13 12:00N 35°07' E 139°40'611.4
2017-Dec-13 11:31N 35°11' E 139°45'611.1
2017-Dec-13 11:01N 35°16' E 139°45'611.6
2017-Dec-13 10:30N 35°21' E 139°42'511.0
2017-Dec-13 10:00N 35°26' E 139°45'611.9
2017-Dec-13 09:30N 35°30' E 139°51'510.7
2017-Dec-13 09:00N 35°30' E 139°58'1 1.1
2017-Dec-13 08:21N 35°29' E 139°59'0 0.0
2017-Dec-13 08:00N 35°29' E 139°59'0 0.0
2017-Dec-13 06:54N 35°29' E 139°59'2 5.0
2017-Dec-13 06:30N 35°27' E 139°60'0 0.0
2017-Dec-13 06:00N 35°27' E 139°60'0 0.0
2017-Dec-13 05:30N 35°27' E 139°60'0 0.0
2017-Dec-13 05:00N 35°27' E 139°60'0 0.0
2017-Dec-13 04:28N 35°27' E 139°60'0 0.0
2017-Dec-13 03:31N 35°27' E 139°60'0 0.0
2017-Dec-13 03:10N 35°27' E 139°60'0 0.0
2017-Dec-13 02:55N 35°27' E 139°60'0 0.0
2017-Dec-13 02:25N 35°27' E 139°60'0 0.0
2017-Dec-13 01:58N 35°27' E 139°60'0 0.0
2017-Dec-13 01:22N 35°27' E 139°60'0 0.0
2017-Dec-13 00:58N 35°27' E 139°60'0 0.0
2017-Dec-13 00:22N 35°27' E 139°60'0 0.0
2017-Dec-12 23:58N 35°27' E 139°60'0 0.0
2017-Dec-12 23:13N 35°27' E 139°60'0 0.0
2017-Dec-12 22:49N 35°27' E 139°60'1 1.7
2017-Dec-12 22:30N 35°28' E 139°59'2 2.9
2017-Dec-12 21:49N 35°30' E 139°58'2 7.3
2017-Dec-12 21:30N 35°30' E 139°55'5 9.8
2017-Dec-12 21:00N 35°27' E 139°51'510.2
2017-Dec-12 20:31N 35°23' E 139°46'510.0
2017-Dec-12 20:00N 35°19' E 139°44'510.2
2017-Dec-12 19:30N 35°14' E 139°47'510.8
2017-Dec-12 19:00N 35°09' E 139°47'611.1
2017-Dec-12 18:30N 35°03' E 139°45'11 9.4
2017-Dec-12 17:22N 34°53' E 139°48'12 9.0
2017-Dec-12 16:02N 34°56' E 140°02'411.1
2017-Dec-12 15:40N 34°58' E 140°06'  
2017-Dec-07 19:02N 34°57' E 140°07'011.0
2017-Dec-07 19:00N 34°57' E 140°07'1712.6
2017-Dec-07 17:38N 34°50' E 139°48'212.2
2017-Dec-07 17:28N 34°50' E 139°45'711.3
2017-Dec-07 16:51N 34°49' E 139°37'511.3
2017-Dec-07 16:26N 34°50' E 139°31'712.0
2017-Dec-07 15:52N 34°50' E 139°23'813.2
2017-Dec-07 15:16N 34°46' E 139°15'313.1
2017-Dec-07 15:00N 34°44' E 139°11'713.1
2017-Dec-07 14:30N 34°40' E 139°05'712.1
2017-Dec-07 13:56N 34°36' E 138°58'612.8
2017-Dec-07 13:27N 34°35' E 138°50'512.0
2017-Dec-07 13:00N 34°36' E 138°44'510.6
2017-Dec-07 12:29N 34°41' E 138°41'510.2
2017-Dec-07 11:59N 34°46' E 138°40'510.5
2017-Dec-07 11:30N 34°51' E 138°38'510.8
2017-Dec-07 11:00N 34°56' E 138°36'510.8
2017-Dec-07 10:30N 35°01' E 138°33'3 5.3
2017-Dec-07 10:00N 35°01' E 138°30'0 0.1
2017-Dec-07 09:30N 35°01' E 138°30'0 0.1
2017-Dec-07 08:58N 35°01' E 138°30'0 0.0
2017-Dec-07 08:28N 35°01' E 138°30'0 0.0
2017-Dec-07 07:58N 35°01' E 138°30'0 0.1
2017-Dec-07 07:28N 35°01' E 138°30'0 0.0
2017-Dec-07 06:58N 35°01' E 138°30'0 0.0
2017-Dec-07 06:28N 35°01' E 138°30'0 0.1
2017-Dec-07 05:58N 35°01' E 138°30'0 0.1
2017-Dec-07 05:28N 35°01' E 138°30'0 0.0
2017-Dec-07 04:58N 35°01' E 138°30'0 0.1
2017-Dec-07 04:28N 35°01' E 138°30'0 0.0
2017-Dec-07 03:58N 35°01' E 138°30'0 0.0
2017-Dec-07 03:28N 35°01' E 138°30'0 0.0
2017-Dec-07 02:58N 35°01' E 138°30'0 0.0
2017-Dec-07 02:25N 35°01' E 138°30'0 0.0
2017-Dec-07 01:58N 35°01' E 138°30'0 0.0
2017-Dec-07 01:25N 35°01' E 138°30'0 0.0
2017-Dec-07 01:01N 35°01' E 138°30'0 0.0
2017-Dec-07 00:30N 35°01' E 138°30'0 0.0
2017-Dec-07 00:01N 35°01' E 138°30'0 0.0
2017-Dec-06 23:31N 35°01' E 138°30'0 0.0
2017-Dec-06 23:00N 35°01' E 138°30'0 0.0
2017-Dec-06 22:30N 35°01' E 138°30'0 0.0
2017-Dec-06 22:00N 35°01' E 138°30'1 1.6
2017-Dec-06 21:28N 35°01' E 138°30'0 0.0
2017-Dec-06 20:58N 35°01' E 138°30'  

Dump ship's entire track history